KCEW/CEW METAR and TAF weather

Enter ICAO airport designator
Station Type Date Time Source
KCEW METAR 2020/03/31 22:53 UTC NOAA

KCEW 312253Z AUTO 32015G23KT 10SM CLR 24/12 A2975 RMK AO2 PK WND 32028/2200 SLP070 T02390122


Station Type Date Time Source
KCEW Decoded METAR 2020/03/31 22:53 UTC NOAA

CRESTVIEW SIKES AIRPORT, FL, United States (KCEW) 30-46N 086-31W 55M
Mar 31, 2020 - 06:53 PM EDT / 2020.03.31 2253 UTC
Wind: from the NW (320 degrees) at 17 MPH (15 KT) gusting to 26 MPH (23 KT):0
Visibility: 10 mile(s):0
Sky conditions: clear
Temperature: 75.0 F (23.9 C)
Dew Point: 54.0 F (12.2 C)
Relative Humidity: 47%
Pressure (altimeter): 29.75 in. Hg (1007 hPa)
ob: KCEW 312253Z AUTO 32015G23KT 10SM CLR 24/12 A2975 RMK AO2 PK WND 32028/2200 SLP070 T02390122
cycle: 23

Station Type Date Time Source
KCEW TAF UTC NOAA

Error!

Example: see airport list